Time;durP1;ratioP1;P1;durP2;ratioP2;P2;SDS_P1;SDS_P2;PMS_P1;PMS_P2;Temp;Humidity;BMP_temperature;BMP_pressure;BME280_temperature;BME280_humidity;BME280_pressure;Samples;Min_cycle;Max_cycle;Signal;HPM_P1;HPM_P2
2023/06/08 00:01:19;;;;;;;4.05;3.60;;;20.60;99.90;;;;;;1906908;75;21132;-76
2023/06/08 00:04:12;;;;;;;4.28;3.87;;;20.50;99.90;;;;;;1906029;75;21078;-76
2023/06/08 00:07:08;;;;;;;4.62;4.22;;;20.50;99.90;;;;;;1878883;75;21584;-76
2023/06/08 00:09:58;;;;;;;5.67;4.12;;;20.40;99.90;;;;;;1916525;75;21106;-76
2023/06/08 00:15:30;;;;;;;6.53;5.00;;;20.30;99.90;;;;;;1942385;72;22138;-76
2023/06/08 00:18:21;;;;;;;5.53;4.55;;;20.30;99.90;;;;;;1925498;73;21111;-76
2023/06/08 00:21:12;;;;;;;4.80;4.40;;;20.30;99.90;;;;;;1917244;75;21624;-76
2023/06/08 00:24:04;;;;;;;5.30;4.80;;;20.20;99.90;;;;;;1918939;73;21054;-76
2023/06/08 00:29:34;;;;;;;5.35;4.80;;;20.20;99.90;;;;;;1945855;72;22094;-76
2023/06/08 00:35:06;;;;;;;5.33;4.70;;;20.10;99.90;;;;;;1938393;72;22137;-76
2023/06/08 00:40:35;;;;;;;6.75;4.72;;;20.20;99.90;;;;;;1939422;72;22193;-76
2023/06/08 00:46:07;;;;;;;5.80;4.60;;;20.30;99.90;;;;;;1936746;72;22170;-76
2023/06/08 00:51:40;;;;;;;4.53;4.12;;;20.40;99.90;;;;;;1953690;72;22349;-76
2023/06/08 00:54:32;;;;;;;5.37;4.10;;;20.40;99.90;;;;;;1917557;74;21153;-76
2023/06/08 00:57:28;;;;;;;5.20;4.50;;;20.40;99.90;;;;;;1919935;74;21052;-76
2023/06/08 01:00:21;;;;;;;4.83;4.33;;;20.30;99.90;;;;;;1915583;74;21091;-76
2023/06/08 01:05:54;;;;;;;5.92;4.30;;;20.30;99.90;;;;;;1934367;72;22257;-76
2023/06/08 01:08:53;;;;;;;5.25;4.12;;;20.20;99.90;;;;;;1894882;75;21171;-77
2023/06/08 01:11:51;;;;;;;5.10;3.92;;;20.20;99.90;;;;;;1886485;75;21539;-77
2023/06/08 01:14:48;;;;;;;5.47;4.55;;;20.20;99.90;;;;;;1893060;75;21093;-77
2023/06/08 01:20:29;;;;;;;4.67;3.85;;;20.20;99.90;;;;;;1939265;72;22341;-76
2023/06/08 01:23:34;;;;;;;4.22;3.83;;;20.20;99.90;;;;;;1902391;75;21192;-77
2023/06/08 01:26:21;;;;;;;4.50;4.00;;;20.30;99.90;;;;;;1920206;74;21592;-77
2023/06/08 01:29:15;;;;;;;4.50;4.10;;;20.20;99.90;;;;;;1897765;75;21132;-77
2023/06/08 01:32:08;;;;;;;4.72;4.15;;;20.10;99.90;;;;;;1900696;74;21089;-76
2023/06/08 01:37:42;;;;;;;4.60;4.20;;;20.00;99.90;;;;;;1940065;72;22134;-76
2023/06/08 01:40:37;;;;;;;5.53;4.25;;;20.10;99.90;;;;;;1907055;75;21106;-76
2023/06/08 01:43:30;;;;;;;4.80;4.40;;;20.00;99.90;;;;;;1894671;75;21581;-76
2023/06/08 01:49:05;;;;;;;5.12;4.35;;;19.90;99.90;;;;;;1936296;72;22703;-76
2023/06/08 01:51:57;;;;;;;4.20;3.80;;;19.80;99.90;;;;;;1894213;75;21094;-76
2023/06/08 01:54:48;;;;;;;4.35;3.95;;;19.80;99.90;;;;;;1902399;75;21102;-76
2023/06/08 01:57:41;;;;;;;4.80;4.30;;;19.80;99.90;;;;;;1888879;75;21163;-76
2023/06/08 02:00:32;;;;;;;5.95;4.30;;;19.80;99.90;;;;;;1904327;75;21094;-76
2023/06/08 02:03:24;;;;;;;4.83;4.05;;;19.80;99.90;;;;;;1885646;75;21098;-76
2023/06/08 02:06:16;;;;;;;4.50;4.10;;;19.80;99.90;;;;;;1905955;75;21102;-76
2023/06/08 02:09:07;;;;;;;4.75;4.35;;;19.90;99.90;;;;;;1906297;75;21164;-76
2023/06/08 02:12:07;;;;;;;6.83;4.72;;;19.80;99.90;;;;;;1893780;75;21101;-76
2023/06/08 02:14:58;;;;;;;5.67;4.80;;;19.80;99.90;;;;;;1893457;75;21609;-76
2023/06/08 02:20:33;;;;;;;6.72;4.47;;;19.70;99.90;;;;;;1940919;72;22272;-76
2023/06/08 02:26:04;;;;;;;4.95;4.30;;;19.60;99.90;;;;;;1944009;72;22302;-76
2023/06/08 02:28:55;;;;;;;4.28;3.87;;;19.60;99.90;;;;;;1886994;75;21176;-76
2023/06/08 02:31:47;;;;;;;4.83;3.80;;;19.60;99.90;;;;;;1896697;75;21619;-76
2023/06/08 02:34:39;;;;;;;4.45;4.05;;;19.60;99.90;;;;;;1857075;76;21211;-76
2023/06/08 02:37:33;;;;;;;5.67;3.87;;;19.60;99.90;;;;;;1906787;75;21094;-76
2023/06/08 02:40:24;;;;;;;5.55;4.10;;;19.60;99.90;;;;;;1892296;75;21127;-76
2023/06/08 02:45:55;;;;;;;6.22;3.55;;;19.50;99.90;;;;;;1933588;72;22147;-76
2023/06/08 02:48:49;;;;;;;4.58;4.17;;;19.50;99.90;;;;;;1914200;74;21139;-76
2023/06/08 02:51:40;;;;;;;4.33;3.90;;;19.50;99.90;;;;;;1913051;75;21838;-76
2023/06/08 02:54:32;;;;;;;4.30;3.52;;;19.40;99.90;;;;;;1902361;75;21143;-76
2023/06/08 03:00:03;;;;;;;5.58;3.72;;;19.40;99.90;;;;;;1934640;72;22194;-76
2023/06/08 03:02:56;;;;;;;4.17;3.77;;;19.30;99.90;;;;;;1896019;75;21176;-77
2023/06/08 03:05:49;;;;;;;4.12;3.72;;;19.40;99.90;;;;;;1889852;75;21563;-76
2023/06/08 03:08:40;;;;;;;4.55;4.10;;;19.30;99.90;;;;;;1907754;75;21211;-76
2023/06/08 03:11:32;;;;;;;4.62;4.22;;;19.30;99.90;;;;;;1915441;75;21119;-76
2023/06/08 03:14:29;;;;;;;4.92;3.87;;;19.30;99.90;;;;;;1895169;75;21158;-76
2023/06/08 03:17:19;;;;;;;5.28;3.87;;;19.30;99.90;;;;;;1893265;75;21075;-76
2023/06/08 03:20:13;;;;;;;5.60;3.72;;;19.30;99.90;;;;;;1891398;75;21093;-76
2023/06/08 03:25:48;;;;;;;4.92;4.20;;;19.40;99.90;;;;;;1941729;72;22283;-77
2023/06/08 03:28:39;;;;;;;5.03;4.53;;;19.40;99.90;;;;;;1915612;75;21138;-77
2023/06/08 03:31:36;;;;;;;4.47;4.08;;;19.40;99.90;;;;;;1873277;76;21113;-76
2023/06/08 03:34:25;;;;;;;4.75;4.17;;;19.50;99.90;;;;;;1911106;75;21635;-76
2023/06/08 03:37:18;;;;;;;4.97;4.33;;;19.50;99.90;;;;;;1905767;75;21577;-76
2023/06/08 03:40:11;;;;;;;4.85;4.30;;;19.50;99.90;;;;;;1900630;75;21128;-76
2023/06/08 03:43:03;;;;;;;6.12;4.70;;;19.30;99.90;;;;;;1880360;76;21121;-76
2023/06/08 03:45:54;;;;;;;5.47;4.35;;;19.30;99.90;;;;;;1906906;75;21132;-76
2023/06/08 03:48:45;;;;;;;7.12;4.92;;;19.30;99.90;;;;;;1911919;75;21632;-76
2023/06/08 03:51:37;;;;;;;4.90;4.40;;;19.30;99.90;;;;;;1895434;75;21179;-76
2023/06/08 03:57:08;;;;;;;4.97;4.58;;;19.20;99.90;;;;;;1941212;72;22670;-76
2023/06/08 04:00:00;;;;;;;5.55;4.42;;;19.20;99.90;;;;;;1947126;73;21074;-76
2023/06/08 04:02:53;;;;;;;5.78;5.17;;;19.20;99.90;;;;;;1925520;73;21137;-76
2023/06/08 04:05:47;;;;;;;7.20;6.33;;;19.20;99.90;;;;;;1942166;73;21045;-76
2023/06/08 04:08:40;;;;;;;8.00;6.85;;;19.20;99.90;;;;;;1932396;73;21074;-76
2023/06/08 04:11:32;;;;;;;10.82;6.50;;;19.20;99.90;;;;;;1927740;73;21199;-76
2023/06/08 04:14:23;;;;;;;7.03;5.17;;;19.20;99.90;;;;;;1935093;73;21093;-76
2023/06/08 04:17:16;;;;;;;5.60;4.50;;;19.10;99.90;;;;;;1934777;73;21097;-76
2023/06/08 04:20:13;;;;;;;5.90;4.50;;;19.10;99.90;;;;;;1942550;73;21147;-76
2023/06/08 04:23:04;;;;;;;6.78;4.70;;;19.10;99.90;;;;;;1933471;73;21041;-76
2023/06/08 04:25:56;;;;;;;6.12;4.67;;;19.00;99.90;;;;;;1923773;73;21122;-76
2023/06/08 04:28:48;;;;;;;5.47;4.58;;;19.00;99.90;;;;;;1937040;73;21152;-76
2023/06/08 04:31:41;;;;;;;5.62;4.50;;;19.00;99.90;;;;;;1935042;73;21182;-76
2023/06/08 04:34:33;;;;;;;5.80;4.55;;;18.90;99.90;;;;;;1928572;73;21188;-76
2023/06/08 04:40:09;;;;;;;6.47;4.92;;;19.00;99.90;;;;;;1947550;72;22551;-76
2023/06/08 04:45:45;;;;;;;5.60;4.55;;;19.10;99.90;;;;;;1928368;72;22318;-77
2023/06/08 04:51:16;;;;;;;6.37;5.08;;;19.20;99.90;;;;;;1938632;72;22169;-76
2023/06/08 04:54:13;;;;;;;5.70;5.20;;;19.20;99.90;;;;;;1900793;74;21192;-76
2023/06/08 04:57:03;;;;;;;6.67;5.33;;;19.20;99.90;;;;;;1905780;74;21102;-76
2023/06/08 05:02:33;;;;;;;5.42;4.80;;;19.10;99.90;;;;;;1929432;72;22585;-76
2023/06/08 05:05:24;;;;;;;5.33;4.70;;;19.10;99.90;;;;;;1903145;74;21099;-76
2023/06/08 05:08:15;;;;;;;5.58;5.00;;;19.20;99.90;;;;;;1902005;75;21537;-76
2023/06/08 05:11:06;;;;;;;5.60;5.10;;;19.20;99.90;;;;;;1883485;75;21123;-76
2023/06/08 05:13:58;;;;;;;5.90;5.30;;;19.30;99.90;;;;;;1894095;75;21172;-76
2023/06/08 05:16:49;;;;;;;5.72;5.03;;;19.30;99.90;;;;;;1901753;75;21139;-76
2023/06/08 05:19:40;;;;;;;6.03;5.42;;;19.30;99.90;;;;;;1902182;75;21090;-76
2023/06/08 05:22:31;;;;;;;7.10;5.70;;;19.30;99.90;;;;;;1889007;75;21090;-77
2023/06/08 05:25:22;;;;;;;6.40;4.78;;;19.30;99.90;;;;;;1889196;75;21593;-76
2023/06/08 05:28:14;;;;;;;6.67;4.72;;;19.40;99.90;;;;;;1899370;75;21154;-77
2023/06/08 05:31:05;;;;;;;5.05;4.42;;;19.40;99.90;;;;;;1882047;75;21188;-77
2023/06/08 05:36:37;;;;;;;5.45;4.95;;;19.60;99.90;;;;;;1940351;72;22599;-76
2023/06/08 05:39:28;;;;;;;5.55;4.87;;;19.70;99.90;;;;;;1893797;73;21147;-77
2023/06/08 05:42:20;;;;;;;7.17;5.15;;;19.60;99.90;;;;;;1882400;75;21134;-77
2023/06/08 05:45:12;;;;;;;5.70;4.90;;;19.60;99.90;;;;;;1907747;73;21427;-77
2023/06/08 05:48:05;;;;;;;5.75;4.95;;;19.60;99.90;;;;;;1894490;75;21079;-76
2023/06/08 05:50:56;;;;;;;5.53;5.03;;;19.70;99.90;;;;;;1891481;75;21131;-78
2023/06/08 05:53:47;;;;;;;6.33;5.30;;;19.90;99.90;;;;;;1904479;73;21205;-79
2023/06/08 05:56:39;;;;;;;6.65;5.40;;;19.90;99.90;;;;;;1895571;75;21117;-79
2023/06/08 06:02:11;;;;;;;5.50;4.90;;;20.10;99.90;;;;;;1947063;72;22110;-78
2023/06/08 06:07:42;;;;;;;6.95;5.05;;;20.10;99.90;;;;;;1941437;72;22591;-78
2023/06/08 06:10:33;;;;;;;6.55;5.83;;;20.10;99.90;;;;;;1925606;73;21134;-78
2023/06/08 06:13:24;;;;;;;7.30;4.80;;;20.00;99.90;;;;;;1923591;73;21079;-78
2023/06/08 06:16:15;;;;;;;6.72;5.00;;;19.90;99.90;;;;;;1928598;73;21132;-80
2023/06/08 06:19:06;;;;;;;7.08;5.15;;;19.90;99.90;;;;;;1937488;73;21166;-79
2023/06/08 06:21:57;;;;;;;6.25;5.12;;;19.80;99.90;;;;;;1945833;73;21114;-80
2023/06/08 06:24:49;;;;;;;6.50;5.60;;;19.60;99.90;;;;;;1936981;73;21619;-79
2023/06/08 06:27:40;;;;;;;7.60;5.28;;;19.60;99.90;;;;;;1933494;73;21057;-79
2023/06/08 06:30:33;;;;;;;5.65;4.72;;;19.70;99.90;;;;;;1937367;73;21827;-79
2023/06/08 06:33:25;;;;;;;5.47;4.95;;;19.60;99.90;;;;;;1914108;73;21081;-78
2023/06/08 06:36:16;;;;;;;8.05;5.33;;;19.60;99.90;;;;;;1922892;74;21077;-78
2023/06/08 06:39:07;;;;;;;7.30;5.12;;;19.70;99.90;;;;;;1926714;73;21130;-78
2023/06/08 06:42:00;;;;;;;5.65;5.00;;;19.80;99.90;;;;;;1925320;73;21192;-79
2023/06/08 06:44:53;;;;;;;5.50;4.95;;;19.70;99.90;;;;;;1942625;73;21600;-78
2023/06/08 06:50:23;;;;;;;6.67;5.20;;;19.80;99.90;;;;;;1933479;72;22818;-77
2023/06/08 06:55:54;;;;;;;6.30;5.62;;;19.90;99.90;;;;;;1925623;72;22201;-80
2023/06/08 06:58:45;;;;;;;7.85;5.20;;;19.90;99.90;;;;;;1907591;75;21165;-79
2023/06/08 07:01:37;;;;;;;5.67;4.92;;;20.00;99.90;;;;;;1899925;73;21613;-79
2023/06/08 07:07:09;;;;;;;6.37;4.80;;;20.10;99.90;;;;;;1945014;72;22202;-79
2023/06/08 07:10:01;;;;;;;7.17;5.20;;;20.20;99.90;;;;;;1891412;75;21098;-78
2023/06/08 07:12:52;;;;;;;7.97;5.50;;;20.20;99.90;;;;;;1905716;75;21349;-78
2023/06/08 07:18:24;;;;;;;8.30;6.87;;;20.30;99.90;;;;;;1933275;72;22212;-78
2023/06/08 07:21:19;;;;;;;6.03;4.87;;;20.30;99.90;;;;;;1891868;75;21153;-78
2023/06/08 07:26:49;;;;;;;6.90;5.08;;;20.50;99.90;;;;;;1956804;72;22239;-79
2023/06/08 07:29:40;;;;;;;6.05;4.90;;;20.50;99.90;;;;;;1922243;73;21143;-79
2023/06/08 07:35:13;;;;;;;5.40;4.87;;;20.70;99.90;;;;;;1943662;72;22251;-79
2023/06/08 07:38:06;;;;;;;7.15;5.00;;;20.80;99.90;;;;;;1883145;75;21121;-78
2023/06/08 07:40:57;;;;;;;6.35;5.20;;;20.80;99.90;;;;;;1869269;76;21187;-78
2023/06/08 07:46:27;;;;;;;6.83;5.55;;;21.00;99.90;;;;;;1934357;72;22206;-78
2023/06/08 07:49:18;;;;;;;7.60;5.47;;;21.10;99.90;;;;;;1893043;75;21182;-79
2023/06/08 07:52:10;;;;;;;6.00;5.40;;;21.10;99.90;;;;;;1905658;75;21129;-79
2023/06/08 07:57:42;;;;;;;8.38;5.28;;;21.20;99.90;;;;;;1951168;72;22141;-79
2023/06/08 08:00:35;;;;;;;7.72;5.25;;;21.30;99.90;;;;;;1904132;74;21233;-79
2023/06/08 08:03:26;;;;;;;6.80;5.25;;;21.30;99.90;;;;;;1907378;75;21148;-79
2023/06/08 08:08:57;;;;;;;7.20;4.92;;;21.50;99.90;;;;;;1940826;72;22682;-79
2023/06/08 08:11:48;;;;;;;5.85;4.87;;;21.50;99.90;;;;;;1892965;75;21121;-79
2023/06/08 08:14:39;;;;;;;5.72;4.60;;;21.50;99.90;;;;;;1889303;75;21551;-79
2023/06/08 08:20:12;;;;;;;6.17;5.10;;;21.60;99.90;;;;;;1933816;72;22261;-79
2023/06/08 08:23:05;;;;;;;6.33;4.62;;;21.70;99.90;;;;;;1896543;75;21098;-81
2023/06/08 08:25:57;;;;;;;5.87;5.00;;;21.80;99.90;;;;;;1905224;75;21121;-80
2023/06/08 08:28:49;;;;;;;5.03;4.53;;;22.00;99.90;;;;;;1896262;75;21155;-80
2023/06/08 08:31:40;;;;;;;5.85;5.08;;;22.10;99.90;;;;;;1903667;75;21051;-80
2023/06/08 08:37:10;;;;;;;7.28;4.80;;;22.20;99.90;;;;;;1934922;72;22624;-79
2023/06/08 08:40:02;;;;;;;6.08;4.80;;;22.30;99.90;;;;;;1892194;75;21113;-79
2023/06/08 08:43:00;;;;;;;5.20;4.47;;;22.40;99.90;;;;;;1894365;75;21168;-80
2023/06/08 08:45:52;;;;;;;5.50;4.33;;;22.50;99.90;;;;;;1881360;75;21154;-79
2023/06/08 08:48:44;;;;;;;5.03;4.50;;;22.60;99.90;;;;;;1912365;75;21171;-79
2023/06/08 08:51:38;;;;;;;7.35;4.85;;;22.80;99.90;;;;;;1885696;75;21114;-79
2023/06/08 08:54:33;;;;;;;6.35;4.97;;;22.90;99.90;;;;;;1899042;75;21095;-80
2023/06/08 08:57:28;;;;;;;5.50;5.00;;;23.00;99.90;;;;;;1891751;75;21094;-80
2023/06/08 09:00:23;;;;;;;5.85;5.05;;;23.20;99.90;;;;;;1888871;75;21107;-80
2023/06/08 09:05:53;;;;;;;4.80;4.30;;;23.20;99.90;;;;;;1943231;72;22203;-80
2023/06/08 09:08:45;;;;;;;5.42;4.55;;;23.30;99.90;;;;;;1908902;75;21157;-80
2023/06/08 09:11:41;;;;;;;5.58;4.33;;;23.30;99.90;;;;;;1906441;74;21058;-80
2023/06/08 09:14:32;;;;;;;7.33;4.33;;;23.50;99.90;;;;;;1907074;75;21160;-80
2023/06/08 09:17:37;;;;;;;5.20;4.33;;;23.50;99.90;;;;;;1902764;75;21090;-79
2023/06/08 09:20:29;;;;;;;4.55;4.03;;;23.50;99.90;;;;;;1901535;75;21134;-80
2023/06/08 09:23:24;;;;;;;5.33;4.80;;;23.60;99.90;;;;;;1909342;75;21095;-80
2023/06/08 09:26:20;;;;;;;5.25;4.30;;;23.70;99.90;;;;;;1907193;75;21055;-80
2023/06/08 09:29:13;;;;;;;5.28;4.10;;;23.90;99.90;;;;;;1888266;75;21174;-79
2023/06/08 09:32:06;;;;;;;5.08;4.50;;;23.90;99.90;;;;;;1888235;75;21189;-80
2023/06/08 09:35:01;;;;;;;7.15;4.47;;;23.80;99.90;;;;;;1916050;74;21105;-80
2023/06/08 09:40:32;;;;;;;5.30;4.50;;;23.70;99.90;;;;;;1921815;72;22176;-79
2023/06/08 09:46:17;;;;;;;8.40;4.72;;;23.90;99.90;;;;;;1942279;72;22131;-79
2023/06/08 09:49:11;;;;;;;4.60;4.15;;;23.80;99.90;;;;;;1901191;75;21098;-79
2023/06/08 09:52:02;;;;;;;5.47;4.28;;;23.80;99.90;;;;;;1912005;75;21117;-80
2023/06/08 09:57:37;;;;;;;4.85;4.45;;;24.10;99.90;;;;;;1939569;72;22229;-79
2023/06/08 10:00:29;;;;;;;4.62;4.22;;;24.00;99.90;;;;;;1888933;75;21184;-80
2023/06/08 10:06:02;;;;;;;4.83;4.42;;;24.20;99.90;;;;;;1929523;72;22260;-79
2023/06/08 10:08:55;;;;;;;4.80;4.12;;;24.20;99.90;;;;;;1904610;75;21105;-79
2023/06/08 10:11:47;;;;;;;4.72;3.80;;;24.30;99.90;;;;;;1904485;75;21145;-79
2023/06/08 10:14:40;;;;;;;4.50;4.10;;;24.40;99.90;;;;;;1904204;74;21101;-80
2023/06/08 10:17:33;;;;;;;4.03;3.70;;;24.50;99.90;;;;;;1890016;75;21189;-80
2023/06/08 10:20:26;;;;;;;4.75;4.12;;;24.70;99.90;;;;;;1880988;75;21196;-80
2023/06/08 10:23:18;;;;;;;5.08;4.30;;;24.90;99.90;;;;;;1893836;75;21724;-80
2023/06/08 10:26:10;;;;;;;7.20;4.30;;;25.00;99.90;;;;;;1899073;75;21157;-79
2023/06/08 10:29:10;;;;;;;5.30;4.80;;;25.00;99.90;;;;;;1885882;75;21075;-79
2023/06/08 10:32:08;;;;;;;4.90;4.05;;;24.80;99.90;;;;;;1897028;75;21113;-80
2023/06/08 10:35:02;;;;;;;5.58;5.05;;;24.60;99.90;;;;;;1893311;75;21581;-79
2023/06/08 10:37:55;;;;;;;5.55;4.62;;;24.70;99.90;;;;;;1890060;75;21211;-80
2023/06/08 10:40:50;;;;;;;5.17;4.62;;;24.60;99.90;;;;;;1905188;75;21339;-79
2023/06/08 10:46:41;;;;;;;5.15;4.30;;;24.70;99.90;;;;;;1942268;72;22115;-79
2023/06/08 10:49:33;;;;;;;4.85;4.45;;;24.60;99.90;;;;;;1904405;75;21102;-80
2023/06/08 10:52:26;;;;;;;4.92;4.42;;;24.60;99.90;;;;;;1900019;75;21155;-79
2023/06/08 10:55:19;;;;;;;5.40;4.28;;;24.60;99.90;;;;;;1897226;75;21078;-79
2023/06/08 10:58:19;;;;;;;4.50;3.98;;;24.50;99.90;;;;;;1897385;75;21152;-79
2023/06/08 11:01:11;;;;;;;5.87;3.85;;;24.60;99.90;;;;;;1898400;75;21133;-79
2023/06/08 11:04:06;;;;;;;3.98;3.60;;;24.70;99.90;;;;;;1896984;75;21561;-79
2023/06/08 11:07:03;;;;;;;5.05;3.98;;;24.70;99.90;;;;;;1884273;75;21168;-79
2023/06/08 11:09:55;;;;;;;5.95;3.80;;;24.70;99.90;;;;;;1884520;75;21106;-79
2023/06/08 11:12:46;;;;;;;4.87;3.70;;;24.90;99.90;;;;;;1897597;74;21054;-79
2023/06/08 11:15:39;;;;;;;3.47;3.17;;;25.00;99.90;;;;;;1908396;74;21152;-80
2023/06/08 11:18:32;;;;;;;3.72;2.95;;;25.30;99.90;;;;;;1906952;75;21133;-80
2023/06/08 11:21:26;;;;;;;4.60;3.55;;;25.50;99.90;;;;;;1903301;75;21634;-80
2023/06/08 11:24:18;;;;;;;4.15;3.50;;;25.50;99.90;;;;;;1885197;75;21142;-81
2023/06/08 11:27:11;;;;;;;5.20;3.22;;;25.60;99.90;;;;;;1880648;75;21199;-80
2023/06/08 11:30:02;;;;;;;3.50;3.20;;;25.90;99.90;;;;;;1898050;75;21178;-80
2023/06/08 11:35:33;;;;;;;3.65;3.35;;;25.70;99.90;;;;;;1952793;72;22600;-79
2023/06/08 11:41:23;;;;;;;4.22;3.40;;;25.60;99.90;;;;;;1918439;72;22259;-80
2023/06/08 11:44:33;;;;;;;5.10;3.87;;;25.60;99.90;;;;;;1914093;74;21121;-81
2023/06/08 11:50:22;;;;;;;3.62;3.27;;;25.60;99.90;;;;;;1935795;72;22165;-79
2023/06/08 11:56:11;;;;;;;3.40;3.10;;;25.70;99.90;;;;;;1935354;72;22150;-79
2023/06/08 11:59:23;;;;;;;7.42;3.30;;;25.70;99.90;;;;;;1883732;75;21608;-80
2023/06/08 12:05:17;;;;;;;3.83;3.40;;;25.60;99.90;;;;;;1949295;72;22190;-80
2023/06/08 12:08:28;;;;;;;4.47;3.20;;;25.60;99.90;;;;;;1920350;73;21129;-79
2023/06/08 12:11:38;;;;;;;6.33;3.72;;;25.60;99.90;;;;;;1932446;73;21150;-81
2023/06/08 12:14:49;;;;;;;4.30;3.37;;;25.50;99.90;;;;;;1944854;73;21439;-80
2023/06/08 12:18:03;;;;;;;3.70;3.40;;;25.30;99.90;;;;;;1931386;73;21065;-80
2023/06/08 12:21:15;;;;;;;3.90;3.50;;;25.20;99.90;;;;;;1929733;73;21604;-80
2023/06/08 12:24:25;;;;;;;3.83;3.22;;;25.30;99.90;;;;;;1929842;73;21051;-80
2023/06/08 12:30:14;;;;;;;4.42;3.70;;;25.50;99.90;;;;;;1943342;72;22264;-80
2023/06/08 12:36:03;;;;;;;4.92;3.90;;;25.70;99.90;;;;;;1927776;72;22190;-80
2023/06/08 12:39:13;;;;;;;3.92;3.62;;;25.70;99.90;;;;;;1887905;75;21089;-82
2023/06/08 12:42:23;;;;;;;4.85;3.77;;;25.90;99.90;;;;;;1895572;75;21538;-82
2023/06/08 12:45:33;;;;;;;5.08;3.98;;;25.90;99.90;;;;;;1902129;75;21152;-80
2023/06/08 12:48:43;;;;;;;4.03;3.45;;;25.90;99.90;;;;;;1890607;75;21091;-80
2023/06/08 12:54:33;;;;;;;3.70;3.40;;;26.00;99.90;;;;;;1940885;72;22167;-80
2023/06/08 12:57:43;;;;;;;4.12;3.72;;;26.00;99.90;;;;;;1916567;75;21644;-79
2023/06/08 13:00:52;;;;;;;4.15;3.80;;;26.20;99.90;;;;;;1916865;75;21098;-80
2023/06/08 13:04:03;;;;;;;4.10;3.70;;;26.30;99.90;;;;;;1937987;73;21127;-80
2023/06/08 13:07:13;;;;;;;4.60;4.20;;;26.40;99.90;;;;;;1937573;73;21098;-82
2023/06/08 13:10:23;;;;;;;5.85;4.12;;;26.60;99.90;;;;;;1938894;73;21103;-81
2023/06/08 13:13:32;;;;;;;4.17;3.77;;;26.50;99.90;;;;;;1932886;73;21095;-81
2023/06/08 13:16:44;;;;;;;4.78;4.37;;;26.60;99.90;;;;;;1917193;73;21644;-80
2023/06/08 13:25:17;;;;;;;4.08;3.47;;;26.60;99.90;;;;;;1941557;72;22595;-80
2023/06/08 13:28:27;;;;;;;6.03;4.60;;;26.70;99.90;;;;;;1894936;75;21032;-80
2023/06/08 13:31:37;;;;;;;5.33;4.47;;;26.70;99.90;;;;;;1913408;75;21165;-81
2023/06/08 13:34:47;;;;;;;5.58;4.95;;;26.60;99.90;;;;;;1906426;75;21644;-81
2023/06/08 13:37:57;;;;;;;5.30;4.62;;;26.40;99.90;;;;;;1891326;75;21140;-81
2023/06/08 13:41:07;;;;;;;5.70;5.10;;;26.40;99.90;;;;;;1893804;75;21099;-81
2023/06/08 13:44:16;;;;;;;4.80;4.40;;;26.10;99.90;;;;;;1891332;75;21112;-80
2023/06/08 13:47:26;;;;;;;5.95;4.92;;;26.10;99.90;;;;;;1910909;75;21167;-80
2023/06/08 13:50:36;;;;;;;6.25;5.10;;;26.10;99.90;;;;;;1891436;75;21522;-80
2023/06/08 13:53:46;;;;;;;5.90;5.40;;;26.10;99.90;;;;;;1888936;75;21403;-80
2023/06/08 13:56:56;;;;;;;6.00;5.25;;;26.10;99.90;;;;;;1908480;75;21126;-82
2023/06/08 14:00:10;;;;;;;7.30;5.55;;;26.00;99.90;;;;;;1898798;75;21138;-80
2023/06/08 14:03:20;;;;;;;6.55;5.78;;;26.00;99.90;;;;;;1894868;75;21090;-80
2023/06/08 14:06:31;;;;;;;5.87;5.00;;;26.30;99.90;;;;;;1888154;75;21090;-80
2023/06/08 14:09:41;;;;;;;6.85;5.30;;;27.10;99.90;;;;;;1885133;75;21200;-80
2023/06/08 14:12:52;;;;;;;6.53;5.33;;;27.50;99.90;;;;;;1903239;75;21852;-80
2023/06/08 14:16:03;;;;;;;5.22;4.83;;;27.90;99.90;;;;;;1901922;75;21055;-81
2023/06/08 14:19:15;;;;;;;5.83;5.25;;;28.30;99.90;;;;;;1893916;75;21098;-81
2023/06/08 14:22:26;;;;;;;5.58;4.90;;;28.30;99.90;;;;;;1883853;76;21121;-81
2023/06/08 14:25:38;;;;;;;5.10;4.37;;;28.40;99.90;;;;;;1891814;74;21183;-81
2023/06/08 14:28:47;;;;;;;5.65;4.40;;;28.50;99.90;;;;;;1909971;74;21051;-81
2023/06/08 14:31:58;;;;;;;5.03;4.58;;;28.60;99.90;;;;;;1895262;74;21055;-80
2023/06/08 14:37:50;;;;;;;5.08;4.67;;;29.00;99.90;;;;;;1946131;72;22166;-80
2023/06/08 14:41:00;;;;;;;5.33;4.30;;;28.90;99.90;;;;;;1931471;73;21125;-80
2023/06/08 14:44:09;;;;;;;5.60;4.25;;;28.70;99.90;;;;;;1931145;73;21134;-80
2023/06/08 14:47:19;;;;;;;4.75;4.35;;;28.80;99.90;;;;;;1926091;73;21135;-80
2023/06/08 14:50:30;;;;;;;4.85;4.35;;;28.80;99.90;;;;;;1917950;73;21140;-80
2023/06/08 14:53:40;;;;;;;4.30;3.90;;;28.80;99.90;;;;;;1933407;73;21118;-80
2023/06/08 14:56:50;;;;;;;4.87;4.28;;;28.90;99.90;;;;;;1921163;73;21085;-80
2023/06/08 15:02:40;;;;;;;4.78;3.62;;;28.40;99.90;;;;;;1937727;72;22252;-80
2023/06/08 15:05:50;;;;;;;4.08;3.70;;;28.50;99.90;;;;;;1881954;75;21174;-79
2023/06/08 15:09:00;;;;;;;4.12;3.83;;;28.90;99.90;;;;;;1883227;75;21201;-80
2023/06/08 15:12:11;;;;;;;4.17;3.77;;;29.10;99.90;;;;;;1880335;75;21124;-80
2023/06/08 15:15:21;;;;;;;5.22;4.12;;;29.50;99.90;;;;;;1901434;75;21132;-80
2023/06/08 15:18:31;;;;;;;4.65;3.67;;;29.40;99.90;;;;;;1898004;75;21103;-80
2023/06/08 15:21:41;;;;;;;4.10;3.30;;;29.20;99.90;;;;;;1886987;75;21182;-79
2023/06/08 15:27:30;;;;;;;3.75;3.45;;;29.40;99.90;;;;;;1939254;72;22544;-79
2023/06/08 15:33:19;;;;;;;3.27;2.98;;;30.20;99.90;;;;;;1930705;72;22248;-79
2023/06/08 15:36:29;;;;;;;5.10;3.40;;;30.20;99.90;;;;;;1923097;73;21153;-79
2023/06/08 15:42:19;;;;;;;7.10;3.55;;;29.80;99.90;;;;;;1947346;72;22590;-79
2023/06/08 15:45:29;;;;;;;3.50;3.20;;;29.40;99.90;;;;;;1886134;73;21163;-79
2023/06/08 15:51:17;;;;;;;3.22;2.92;;;30.80;99.90;;;;;;1950352;72;22191;-79
2023/06/08 15:54:27;;;;;;;3.25;2.95;;;31.00;99.90;;;;;;1900882;74;21058;-79
2023/06/08 16:00:18;;;;;;;3.75;3.40;;;31.20;99.90;;;;;;1946773;72;22686;-79
2023/06/08 16:03:27;;;;;;;3.20;2.90;;;30.90;99.90;;;;;;1900910;74;21095;-80
2023/06/08 16:06:40;;;;;;;2.50;2.30;;;30.50;99.90;;;;;;1885564;75;21109;-79
2023/06/08 16:09:48;;;;;;;3.05;2.40;;;30.00;99.90;;;;;;1895751;75;21091;-80
2023/06/08 16:15:18;;;;;;;4.20;2.40;;;30.20;99.40;;;;;;1939801;72;22631;-80
2023/06/08 16:18:09;;;;;;;3.95;3.02;;;30.30;98.90;;;;;;1893259;74;21114;-80
2023/06/08 16:21:01;;;;;;;4.85;2.92;;;29.70;99.20;;;;;;1890901;75;21192;-80
2023/06/08 16:23:56;;;;;;;3.00;2.70;;;29.40;99.50;;;;;;1900314;75;21138;-79
2023/06/08 16:26:48;;;;;;;2.87;2.30;;;29.30;99.90;;;;;;1900966;75;21123;-80
2023/06/08 16:32:20;;;;;;;3.98;2.35;;;29.00;99.90;;;;;;1940479;72;22228;-80
2023/06/08 16:35:11;;;;;;;3.42;2.52;;;29.80;98.70;;;;;;1890932;75;21062;-79
2023/06/08 16:40:41;;;;;;;2.83;2.60;;;29.80;98.30;;;;;;1934179;72;22683;-80
2023/06/08 16:46:11;;;;;;;2.80;2.60;;;28.80;99.50;;;;;;1935584;72;22129;-79
2023/06/08 16:49:03;;;;;;;2.83;2.50;;;29.00;99.50;;;;;;1918950;74;21060;-79
2023/06/08 16:51:55;;;;;;;3.25;2.25;;;28.60;99.90;;;;;;1924926;74;21117;-79
2023/06/08 16:54:47;;;;;;;3.40;2.33;;;28.40;99.90;;;;;;1927520;73;21088;-80
2023/06/08 17:00:18;;;;;;;2.60;2.33;;;28.40;99.90;;;;;;1949879;72;22118;-79
2023/06/08 17:05:50;;;;;;;3.33;2.50;;;28.40;99.90;;;;;;1945839;72;22217;-79
2023/06/08 17:09:03;;;;;;;2.87;2.40;;;28.60;99.90;;;;;;1910519;75;21588;-80
2023/06/08 17:11:57;;;;;;;2.37;2.17;;;28.40;99.90;;;;;;1882237;75;21441;-80
2023/06/08 17:14:48;;;;;;;2.50;2.22;;;28.60;99.90;;;;;;1892678;75;21608;-80
2023/06/08 17:20:21;;;;;;;7.40;2.40;;;28.10;99.90;;;;;;1932676;72;22220;-79
2023/06/08 17:23:13;;;;;;;4.33;2.50;;;27.80;99.90;;;;;;1881451;74;21099;-79
2023/06/08 17:26:04;;;;;;;3.33;2.55;;;27.80;99.90;;;;;;1892678;75;21071;-79
2023/06/08 17:31:38;;;;;;;2.72;2.42;;;27.30;99.90;;;;;;1938888;72;22215;-79
2023/06/08 17:34:29;;;;;;;3.17;2.30;;;27.30;99.90;;;;;;1883476;75;21054;-79
2023/06/08 17:40:15;;;;;;;2.70;2.50;;;27.20;99.90;;;;;;1913293;72;22296;-81
2023/06/08 17:43:06;;;;;;;3.08;2.70;;;27.10;99.90;;;;;;1896688;75;21102;-80
2023/06/08 17:45:57;;;;;;;3.27;2.52;;;27.20;99.90;;;;;;1902473;75;21111;-80
2023/06/08 17:48:48;;;;;;;3.15;2.85;;;27.10;99.90;;;;;;1901810;75;21167;-80
2023/06/08 17:51:40;;;;;;;3.50;3.20;;;26.90;99.90;;;;;;1901299;75;21100;-80
2023/06/08 17:54:31;;;;;;;4.17;2.70;;;26.80;99.90;;;;;;1907411;74;21059;-74
2023/06/08 18:00:02;;;;;;;3.47;3.12;;;27.00;99.90;;;;;;1912985;72;22217;-74
2023/06/08 18:05:34;;;;;;;3.80;2.77;;;27.00;99.90;;;;;;1974780;72;22531;-74
2023/06/08 18:11:03;;;;;;;3.20;2.90;;;26.70;99.90;;;;;;1938682;72;22201;-74
2023/06/08 18:13:54;;;;;;;2.75;2.55;;;26.70;99.90;;;;;;1928060;73;21082;-74
2023/06/08 18:16:46;;;;;;;4.10;3.37;;;26.60;99.90;;;;;;1922136;73;21146;-74
2023/06/08 18:19:38;;;;;;;4.35;2.90;;;26.50;99.90;;;;;;1940276;73;21536;-74
2023/06/08 18:22:30;;;;;;;4.85;3.10;;;26.50;99.90;;;;;;1916987;75;21141;-74
2023/06/08 18:25:22;;;;;;;3.20;2.90;;;26.50;99.90;;;;;;1916970;75;21043;-75